sensor_id;sensor_type;location;lat;lon;timestamp;P1;durP1;ratioP1;P2;durP2;ratioP2
34988;SDS011;21192;40.182;44.516;2024-03-02T00:00:25;32.58;;;15.20;;
34988;SDS011;21192;40.182;44.516;2024-03-02T00:02:52;32.05;;;14.63;;
34988;SDS011;21192;40.182;44.516;2024-03-02T00:05:18;32.95;;;14.65;;
34988;SDS011;21192;40.182;44.516;2024-03-02T00:07:54;38.53;;;14.57;;
34988;SDS011;21192;40.182;44.516;2024-03-02T00:10:25;36.40;;;14.63;;
34988;SDS011;21192;40.182;44.516;2024-03-02T00:13:01;36.63;;;15.27;;
34988;SDS011;21192;40.182;44.516;2024-03-02T00:18:19;28.55;;;13.52;;
34988;SDS011;21192;40.182;44.516;2024-03-02T00:20:49;32.72;;;14.10;;
34988;SDS011;21192;40.182;44.516;2024-03-02T00:23:19;32.10;;;15.00;;
34988;SDS011;21192;40.182;44.516;2024-03-02T00:25:47;30.15;;;14.57;;
34988;SDS011;21192;40.182;44.516;2024-03-02T00:28:25;30.02;;;14.63;;
34988;SDS011;21192;40.182;44.516;2024-03-02T00:30:56;35.55;;;14.70;;
34988;SDS011;21192;40.182;44.516;2024-03-02T00:33:23;39.10;;;15.00;;
34988;SDS011;21192;40.182;44.516;2024-03-02T00:35:51;30.75;;;14.40;;
34988;SDS011;21192;40.182;44.516;2024-03-02T00:38:18;33.65;;;13.80;;
34988;SDS011;21192;40.182;44.516;2024-03-02T00:40:44;36.28;;;13.50;;
34988;SDS011;21192;40.182;44.516;2024-03-02T00:46:03;29.92;;;13.23;;
34988;SDS011;21192;40.182;44.516;2024-03-02T00:48:29;28.80;;;13.48;;
34988;SDS011;21192;40.182;44.516;2024-03-02T00:51:01;33.10;;;14.32;;
34988;SDS011;21192;40.182;44.516;2024-03-02T00:53:29;36.47;;;14.52;;
34988;SDS011;21192;40.182;44.516;2024-03-02T00:55:56;26.83;;;13.52;;
34988;SDS011;21192;40.182;44.516;2024-03-02T00:58:22;27.15;;;13.57;;
34988;SDS011;21192;40.182;44.516;2024-03-02T01:00:48;30.70;;;14.40;;
34988;SDS011;21192;40.182;44.516;2024-03-02T01:03:14;30.15;;;13.60;;
34988;SDS011;21192;40.182;44.516;2024-03-02T01:05:43;29.90;;;13.65;;
34988;SDS011;21192;40.182;44.516;2024-03-02T01:08:09;26.35;;;13.90;;
34988;SDS011;21192;40.182;44.516;2024-03-02T01:10:35;32.08;;;14.40;;
34988;SDS011;21192;40.182;44.516;2024-03-02T01:13:01;31.65;;;14.50;;
34988;SDS011;21192;40.182;44.516;2024-03-02T01:15:27;36.28;;;13.60;;
34988;SDS011;21192;40.182;44.516;2024-03-02T01:17:53;33.60;;;14.40;;
34988;SDS011;21192;40.182;44.516;2024-03-02T01:20:19;32.25;;;14.07;;
34988;SDS011;21192;40.182;44.516;2024-03-02T01:22:46;33.00;;;13.82;;
34988;SDS011;21192;40.182;44.516;2024-03-02T01:25:12;36.60;;;14.35;;
34988;SDS011;21192;40.182;44.516;2024-03-02T01:27:38;36.10;;;14.63;;
34988;SDS011;21192;40.182;44.516;2024-03-02T01:30:04;33.75;;;14.35;;
34988;SDS011;21192;40.182;44.516;2024-03-02T01:32:31;30.42;;;13.57;;
34988;SDS011;21192;40.182;44.516;2024-03-02T01:34:57;31.10;;;14.52;;
34988;SDS011;21192;40.182;44.516;2024-03-02T01:37:23;36.97;;;14.57;;
34988;SDS011;21192;40.182;44.516;2024-03-02T01:39:49;34.50;;;14.05;;
34988;SDS011;21192;40.182;44.516;2024-03-02T01:42:15;28.83;;;13.63;;
34988;SDS011;21192;40.182;44.516;2024-03-02T01:44:41;33.20;;;13.35;;
34988;SDS011;21192;40.182;44.516;2024-03-02T01:47:06;31.05;;;12.88;;
34988;SDS011;21192;40.182;44.516;2024-03-02T01:49:32;34.20;;;12.63;;
34988;SDS011;21192;40.182;44.516;2024-03-02T01:51:59;32.38;;;14.27;;
34988;SDS011;21192;40.182;44.516;2024-03-02T01:54:25;31.05;;;12.80;;
34988;SDS011;21192;40.182;44.516;2024-03-02T01:56:51;30.95;;;13.40;;
34988;SDS011;21192;40.182;44.516;2024-03-02T01:59:17;32.15;;;13.57;;
34988;SDS011;21192;40.182;44.516;2024-03-02T02:01:43;35.25;;;13.43;;
34988;SDS011;21192;40.182;44.516;2024-03-02T02:04:09;35.47;;;13.13;;
34988;SDS011;21192;40.182;44.516;2024-03-02T02:06:35;38.67;;;14.80;;
34988;SDS011;21192;40.182;44.516;2024-03-02T02:09:00;38.15;;;13.48;;
34988;SDS011;21192;40.182;44.516;2024-03-02T02:11:27;34.13;;;12.55;;
34988;SDS011;21192;40.182;44.516;2024-03-02T02:13:52;29.77;;;13.38;;
34988;SDS011;21192;40.182;44.516;2024-03-02T02:16:20;38.72;;;13.63;;
34988;SDS011;21192;40.182;44.516;2024-03-02T02:18:46;39.55;;;13.93;;
34988;SDS011;21192;40.182;44.516;2024-03-02T02:21:12;46.67;;;14.10;;
34988;SDS011;21192;40.182;44.516;2024-03-02T02:23:38;35.25;;;15.00;;
34988;SDS011;21192;40.182;44.516;2024-03-02T02:26:04;31.67;;;14.52;;
34988;SDS011;21192;40.182;44.516;2024-03-02T02:28:30;34.97;;;15.13;;
34988;SDS011;21192;40.182;44.516;2024-03-02T02:30:56;35.72;;;14.73;;
34988;SDS011;21192;40.182;44.516;2024-03-02T02:33:22;36.90;;;13.98;;
34988;SDS011;21192;40.182;44.516;2024-03-02T02:35:48;32.80;;;15.15;;
34988;SDS011;21192;40.182;44.516;2024-03-02T02:38:14;34.17;;;15.27;;
34988;SDS011;21192;40.182;44.516;2024-03-02T02:40:40;31.85;;;15.50;;
34988;SDS011;21192;40.182;44.516;2024-03-02T02:43:06;32.67;;;14.85;;
34988;SDS011;21192;40.182;44.516;2024-03-02T02:45:32;34.00;;;14.75;;
34988;SDS011;21192;40.182;44.516;2024-03-02T02:47:57;33.92;;;14.40;;
34988;SDS011;21192;40.182;44.516;2024-03-02T02:50:23;39.08;;;14.70;;
34988;SDS011;21192;40.182;44.516;2024-03-02T02:52:49;30.92;;;15.15;;
34988;SDS011;21192;40.182;44.516;2024-03-02T02:55:15;33.28;;;14.18;;
34988;SDS011;21192;40.182;44.516;2024-03-02T02:57:41;35.20;;;16.48;;
34988;SDS011;21192;40.182;44.516;2024-03-02T03:00:12;30.90;;;15.65;;
34988;SDS011;21192;40.182;44.516;2024-03-02T03:02:43;37.72;;;15.52;;
34988;SDS011;21192;40.182;44.516;2024-03-02T03:05:10;33.42;;;15.52;;
34988;SDS011;21192;40.182;44.516;2024-03-02T03:07:39;33.17;;;15.80;;
34988;SDS011;21192;40.182;44.516;2024-03-02T03:10:05;30.98;;;14.30;;
34988;SDS011;21192;40.182;44.516;2024-03-02T03:12:32;29.08;;;14.85;;
34988;SDS011;21192;40.182;44.516;2024-03-02T03:14:59;30.73;;;14.27;;
34988;SDS011;21192;40.182;44.516;2024-03-02T03:17:25;31.50;;;13.30;;
34988;SDS011;21192;40.182;44.516;2024-03-02T03:19:52;35.13;;;16.20;;
34988;SDS011;21192;40.182;44.516;2024-03-02T03:22:19;33.97;;;15.32;;
34988;SDS011;21192;40.182;44.516;2024-03-02T03:24:45;34.42;;;16.27;;
34988;SDS011;21192;40.182;44.516;2024-03-02T03:27:10;31.00;;;15.45;;
34988;SDS011;21192;40.182;44.516;2024-03-02T03:29:37;33.63;;;16.38;;
34988;SDS011;21192;40.182;44.516;2024-03-02T03:32:03;37.38;;;16.42;;
34988;SDS011;21192;40.182;44.516;2024-03-02T03:34:32;31.33;;;15.60;;
34988;SDS011;21192;40.182;44.516;2024-03-02T03:36:58;32.35;;;15.65;;
34988;SDS011;21192;40.182;44.516;2024-03-02T03:39:24;44.53;;;18.27;;
34988;SDS011;21192;40.182;44.516;2024-03-02T03:41:50;33.08;;;16.88;;
34988;SDS011;21192;40.182;44.516;2024-03-02T03:44:16;38.72;;;16.50;;
34988;SDS011;21192;40.182;44.516;2024-03-02T03:46:42;35.63;;;16.50;;
34988;SDS011;21192;40.182;44.516;2024-03-02T03:49:07;35.10;;;16.52;;
34988;SDS011;21192;40.182;44.516;2024-03-02T03:51:33;33.63;;;16.92;;
34988;SDS011;21192;40.182;44.516;2024-03-02T03:54:00;34.28;;;15.65;;
34988;SDS011;21192;40.182;44.516;2024-03-02T03:56:26;31.73;;;15.27;;
34988;SDS011;21192;40.182;44.516;2024-03-02T03:58:52;41.83;;;17.52;;
34988;SDS011;21192;40.182;44.516;2024-03-02T04:01:18;41.22;;;18.15;;
34988;SDS011;21192;40.182;44.516;2024-03-02T04:03:44;47.72;;;20.42;;
34988;SDS011;21192;40.182;44.516;2024-03-02T04:06:10;54.40;;;21.02;;
34988;SDS011;21192;40.182;44.516;2024-03-02T04:08:36;48.25;;;22.67;;
34988;SDS011;21192;40.182;44.516;2024-03-02T04:11:02;50.67;;;22.25;;
34988;SDS011;21192;40.182;44.516;2024-03-02T04:13:29;61.05;;;23.25;;
34988;SDS011;21192;40.182;44.516;2024-03-02T04:15:55;45.17;;;21.30;;
34988;SDS011;21192;40.182;44.516;2024-03-02T04:18:20;44.58;;;21.48;;
34988;SDS011;21192;40.182;44.516;2024-03-02T04:20:46;46.92;;;20.65;;
34988;SDS011;21192;40.182;44.516;2024-03-02T04:23:12;45.50;;;21.38;;
34988;SDS011;21192;40.182;44.516;2024-03-02T04:25:38;50.70;;;20.70;;
34988;SDS011;21192;40.182;44.516;2024-03-02T04:28:04;42.95;;;18.67;;
34988;SDS011;21192;40.182;44.516;2024-03-02T04:30:30;38.20;;;18.40;;
34988;SDS011;21192;40.182;44.516;2024-03-02T04:32:55;42.13;;;19.08;;
34988;SDS011;21192;40.182;44.516;2024-03-02T04:35:22;33.50;;;16.83;;
34988;SDS011;21192;40.182;44.516;2024-03-02T04:37:48;38.75;;;17.08;;
34988;SDS011;21192;40.182;44.516;2024-03-02T04:40:14;30.05;;;15.70;;
34988;SDS011;21192;40.182;44.516;2024-03-02T04:42:40;30.90;;;15.55;;
34988;SDS011;21192;40.182;44.516;2024-03-02T04:45:05;35.33;;;15.68;;
34988;SDS011;21192;40.182;44.516;2024-03-02T04:47:32;43.25;;;17.15;;
34988;SDS011;21192;40.182;44.516;2024-03-02T04:49:58;38.63;;;17.00;;
34988;SDS011;21192;40.182;44.516;2024-03-02T04:52:24;40.92;;;17.38;;
34988;SDS011;21192;40.182;44.516;2024-03-02T04:54:49;31.23;;;15.18;;
34988;SDS011;21192;40.182;44.516;2024-03-02T04:57:34;44.35;;;16.95;;
34988;SDS011;21192;40.182;44.516;2024-03-02T05:00:00;34.60;;;17.20;;
34988;SDS011;21192;40.182;44.516;2024-03-02T05:02:26;37.35;;;14.73;;
34988;SDS011;21192;40.182;44.516;2024-03-02T05:04:52;33.30;;;16.17;;
34988;SDS011;21192;40.182;44.516;2024-03-02T05:07:17;46.20;;;17.88;;
34988;SDS011;21192;40.182;44.516;2024-03-02T05:09:43;43.03;;;17.27;;
34988;SDS011;21192;40.182;44.516;2024-03-02T05:12:09;41.15;;;17.75;;
34988;SDS011;21192;40.182;44.516;2024-03-02T05:15:05;35.75;;;15.90;;
34988;SDS011;21192;40.182;44.516;2024-03-02T05:17:32;35.95;;;16.30;;
34988;SDS011;21192;40.182;44.516;2024-03-02T05:19:58;39.00;;;17.30;;
34988;SDS011;21192;40.182;44.516;2024-03-02T05:22:24;34.78;;;17.45;;
34988;SDS011;21192;40.182;44.516;2024-03-02T05:24:50;43.95;;;17.63;;
34988;SDS011;21192;40.182;44.516;2024-03-02T05:27:16;33.22;;;15.90;;
34988;SDS011;21192;40.182;44.516;2024-03-02T05:29:42;32.88;;;17.27;;
34988;SDS011;21192;40.182;44.516;2024-03-02T05:32:07;33.60;;;17.80;;
34988;SDS011;21192;40.182;44.516;2024-03-02T05:34:33;36.10;;;17.25;;
34988;SDS011;21192;40.182;44.516;2024-03-02T05:37:00;35.20;;;17.48;;
34988;SDS011;21192;40.182;44.516;2024-03-02T05:39:26;37.17;;;17.25;;
34988;SDS011;21192;40.182;44.516;2024-03-02T05:41:52;44.45;;;17.95;;
34988;SDS011;21192;40.182;44.516;2024-03-02T05:44:18;43.92;;;18.63;;
34988;SDS011;21192;40.182;44.516;2024-03-02T05:46:45;38.75;;;18.13;;
34988;SDS011;21192;40.182;44.516;2024-03-02T05:49:11;42.78;;;18.30;;
34988;SDS011;21192;40.182;44.516;2024-03-02T05:51:37;41.78;;;19.08;;
34988;SDS011;21192;40.182;44.516;2024-03-02T05:54:03;36.00;;;18.20;;
34988;SDS011;21192;40.182;44.516;2024-03-02T05:56:29;40.13;;;20.00;;
34988;SDS011;21192;40.182;44.516;2024-03-02T05:58:54;33.88;;;19.58;;
34988;SDS011;21192;40.182;44.516;2024-03-02T06:01:39;40.10;;;19.27;;
34988;SDS011;21192;40.182;44.516;2024-03-02T06:04:06;50.00;;;18.40;;
34988;SDS011;21192;40.182;44.516;2024-03-02T06:06:32;44.67;;;20.00;;
34988;SDS011;21192;40.182;44.516;2024-03-02T06:09:02;44.70;;;19.52;;
34988;SDS011;21192;40.182;44.516;2024-03-02T06:11:38;42.35;;;19.23;;
34988;SDS011;21192;40.182;44.516;2024-03-02T06:14:08;43.97;;;19.20;;
34988;SDS011;21192;40.182;44.516;2024-03-02T06:16:34;38.10;;;18.30;;
34988;SDS011;21192;40.182;44.516;2024-03-02T06:19:00;39.15;;;18.70;;
34988;SDS011;21192;40.182;44.516;2024-03-02T06:21:27;41.47;;;20.13;;
34988;SDS011;21192;40.182;44.516;2024-03-02T06:23:53;45.78;;;22.27;;
34988;SDS011;21192;40.182;44.516;2024-03-02T06:26:19;37.65;;;20.30;;
34988;SDS011;21192;40.182;44.516;2024-03-02T06:28:45;46.25;;;21.33;;
34988;SDS011;21192;40.182;44.516;2024-03-02T06:31:11;48.20;;;22.52;;
34988;SDS011;21192;40.182;44.516;2024-03-02T06:33:37;50.45;;;22.10;;
34988;SDS011;21192;40.182;44.516;2024-03-02T06:36:05;60.60;;;24.67;;
34988;SDS011;21192;40.182;44.516;2024-03-02T06:38:34;55.90;;;24.00;;
34988;SDS011;21192;40.182;44.516;2024-03-02T06:41:00;60.70;;;26.13;;
34988;SDS011;21192;40.182;44.516;2024-03-02T06:43:26;56.80;;;30.65;;
34988;SDS011;21192;40.182;44.516;2024-03-02T06:45:52;65.63;;;28.13;;
34988;SDS011;21192;40.182;44.516;2024-03-02T06:48:18;51.17;;;24.08;;
34988;SDS011;21192;40.182;44.516;2024-03-02T06:50:48;43.53;;;23.00;;
34988;SDS011;21192;40.182;44.516;2024-03-02T06:53:15;53.55;;;23.85;;
34988;SDS011;21192;40.182;44.516;2024-03-02T06:55:45;62.78;;;27.02;;
34988;SDS011;21192;40.182;44.516;2024-03-02T06:58:14;65.05;;;28.63;;
34988;SDS011;21192;40.182;44.516;2024-03-02T07:00:41;72.15;;;31.70;;
34988;SDS011;21192;40.182;44.516;2024-03-02T07:03:07;156.13;;;40.47;;
34988;SDS011;21192;40.182;44.516;2024-03-02T07:05:33;91.72;;;35.35;;
34988;SDS011;21192;40.182;44.516;2024-03-02T07:07:59;98.22;;;41.85;;
34988;SDS011;21192;40.182;44.516;2024-03-02T07:10:26;91.57;;;45.67;;
34988;SDS011;21192;40.182;44.516;2024-03-02T07:12:52;90.85;;;45.92;;
34988;SDS011;21192;40.182;44.516;2024-03-02T07:15:18;106.63;;;45.72;;
34988;SDS011;21192;40.182;44.516;2024-03-02T07:17:50;104.95;;;49.88;;
34988;SDS011;21192;40.182;44.516;2024-03-02T07:20:16;134.75;;;61.72;;
34988;SDS011;21192;40.182;44.516;2024-03-02T07:22:42;153.25;;;66.55;;
34988;SDS011;21192;40.182;44.516;2024-03-02T07:25:08;157.07;;;75.63;;
34988;SDS011;21192;40.182;44.516;2024-03-02T07:27:34;175.30;;;82.85;;
34988;SDS011;21192;40.182;44.516;2024-03-02T07:30:01;197.00;;;94.05;;
34988;SDS011;21192;40.182;44.516;2024-03-02T07:32:28;216.27;;;103.20;;
34988;SDS011;21192;40.182;44.516;2024-03-02T07:34:54;207.98;;;99.05;;
34988;SDS011;21192;40.182;44.516;2024-03-02T07:37:21;230.05;;;104.90;;
34988;SDS011;21192;40.182;44.516;2024-03-02T07:39:47;224.65;;;107.28;;
34988;SDS011;21192;40.182;44.516;2024-03-02T07:42:13;276.95;;;111.35;;
34988;SDS011;21192;40.182;44.516;2024-03-02T07:44:40;230.45;;;107.00;;
34988;SDS011;21192;40.182;44.516;2024-03-02T07:47:06;203.98;;;96.40;;
34988;SDS011;21192;40.182;44.516;2024-03-02T07:49:32;197.27;;;92.32;;
34988;SDS011;21192;40.182;44.516;2024-03-02T07:51:58;195.68;;;90.40;;
34988;SDS011;21192;40.182;44.516;2024-03-02T07:54:23;185.00;;;87.07;;
34988;SDS011;21192;40.182;44.516;2024-03-02T07:56:49;175.25;;;80.18;;
34988;SDS011;21192;40.182;44.516;2024-03-02T07:59:16;146.35;;;72.03;;
34988;SDS011;21192;40.182;44.516;2024-03-02T08:01:42;155.48;;;67.97;;
34988;SDS011;21192;40.182;44.516;2024-03-02T08:04:07;143.55;;;69.22;;
34988;SDS011;21192;40.182;44.516;2024-03-02T08:06:33;164.93;;;65.15;;
34988;SDS011;21192;40.182;44.516;2024-03-02T08:09:00;140.80;;;62.53;;
34988;SDS011;21192;40.182;44.516;2024-03-02T08:11:26;141.68;;;58.35;;
34988;SDS011;21192;40.182;44.516;2024-03-02T08:13:52;132.95;;;60.72;;
34988;SDS011;21192;40.182;44.516;2024-03-02T08:16:20;131.52;;;61.72;;
34988;SDS011;21192;40.182;44.516;2024-03-02T08:18:49;136.73;;;62.53;;
34988;SDS011;21192;40.182;44.516;2024-03-02T08:21:15;144.27;;;68.30;;
34988;SDS011;21192;40.182;44.516;2024-03-02T08:23:42;156.38;;;68.95;;
34988;SDS011;21192;40.182;44.516;2024-03-02T08:26:08;138.20;;;66.10;;
34988;SDS011;21192;40.182;44.516;2024-03-02T08:28:35;129.88;;;61.90;;
34988;SDS011;21192;40.182;44.516;2024-03-02T08:31:05;119.68;;;54.75;;
34988;SDS011;21192;40.182;44.516;2024-03-02T08:33:32;106.10;;;47.50;;
34988;SDS011;21192;40.182;44.516;2024-03-02T08:35:58;74.40;;;35.75;;
34988;SDS011;21192;40.182;44.516;2024-03-02T08:38:24;56.25;;;29.05;;
34988;SDS011;21192;40.182;44.516;2024-03-02T08:40:51;57.55;;;27.55;;
34988;SDS011;21192;40.182;44.516;2024-03-02T08:43:17;46.30;;;24.88;;
34988;SDS011;21192;40.182;44.516;2024-03-02T08:45:43;45.30;;;24.33;;
34988;SDS011;21192;40.182;44.516;2024-03-02T08:48:09;48.90;;;23.70;;
34988;SDS011;21192;40.182;44.516;2024-03-02T08:50:36;51.05;;;24.30;;
34988;SDS011;21192;40.182;44.516;2024-03-02T08:53:05;43.63;;;24.02;;
34988;SDS011;21192;40.182;44.516;2024-03-02T08:55:31;45.05;;;25.30;;
34988;SDS011;21192;40.182;44.516;2024-03-02T08:57:57;43.75;;;24.33;;
34988;SDS011;21192;40.182;44.516;2024-03-02T09:00:23;44.95;;;24.70;;
34988;SDS011;21192;40.182;44.516;2024-03-02T09:02:49;48.13;;;22.85;;
34988;SDS011;21192;40.182;44.516;2024-03-02T09:05:15;55.53;;;24.60;;
34988;SDS011;21192;40.182;44.516;2024-03-02T09:07:41;50.45;;;24.65;;
34988;SDS011;21192;40.182;44.516;2024-03-02T09:10:07;49.00;;;25.30;;
34988;SDS011;21192;40.182;44.516;2024-03-02T09:12:34;38.42;;;23.02;;
34988;SDS011;21192;40.182;44.516;2024-03-02T09:15:00;43.78;;;23.52;;
34988;SDS011;21192;40.182;44.516;2024-03-02T09:17:28;46.17;;;24.17;;
34988;SDS011;21192;40.182;44.516;2024-03-02T09:19:54;50.90;;;25.13;;
34988;SDS011;21192;40.182;44.516;2024-03-02T09:22:20;48.83;;;22.60;;
34988;SDS011;21192;40.182;44.516;2024-03-02T09:24:46;48.08;;;22.80;;
34988;SDS011;21192;40.182;44.516;2024-03-02T09:27:12;46.63;;;22.17;;
34988;SDS011;21192;40.182;44.516;2024-03-02T09:29:37;39.17;;;23.13;;
34988;SDS011;21192;40.182;44.516;2024-03-02T09:32:04;41.85;;;22.45;;
34988;SDS011;21192;40.182;44.516;2024-03-02T09:34:31;44.03;;;24.15;;
34988;SDS011;21192;40.182;44.516;2024-03-02T09:36:57;47.75;;;22.38;;
34988;SDS011;21192;40.182;44.516;2024-03-02T09:39:23;45.05;;;24.15;;
34988;SDS011;21192;40.182;44.516;2024-03-02T09:41:50;47.83;;;23.38;;
34988;SDS011;21192;40.182;44.516;2024-03-02T09:44:16;46.75;;;24.45;;
34988;SDS011;21192;40.182;44.516;2024-03-02T09:46:43;47.97;;;23.88;;
34988;SDS011;21192;40.182;44.516;2024-03-02T09:49:12;42.42;;;22.65;;
34988;SDS011;21192;40.182;44.516;2024-03-02T09:51:38;46.03;;;22.55;;
34988;SDS011;21192;40.182;44.516;2024-03-02T09:54:06;45.92;;;22.13;;
34988;SDS011;21192;40.182;44.516;2024-03-02T09:56:33;38.88;;;22.95;;
34988;SDS011;21192;40.182;44.516;2024-03-02T09:58:59;40.08;;;22.65;;
34988;SDS011;21192;40.182;44.516;2024-03-02T10:01:25;41.90;;;21.77;;
34988;SDS011;21192;40.182;44.516;2024-03-02T10:03:51;47.45;;;22.55;;
34988;SDS011;21192;40.182;44.516;2024-03-02T10:06:18;50.47;;;23.15;;
34988;SDS011;21192;40.182;44.516;2024-03-02T10:08:50;39.22;;;21.35;;
34988;SDS011;21192;40.182;44.516;2024-03-02T10:11:34;39.38;;;20.92;;
34988;SDS011;21192;40.182;44.516;2024-03-02T10:14:09;41.38;;;19.95;;
34988;SDS011;21192;40.182;44.516;2024-03-02T10:16:42;41.60;;;20.10;;
34988;SDS011;21192;40.182;44.516;2024-03-02T10:21:52;39.80;;;21.27;;
34988;SDS011;21192;40.182;44.516;2024-03-02T10:24:20;42.85;;;22.20;;
34988;SDS011;21192;40.182;44.516;2024-03-02T10:26:47;45.20;;;22.13;;
34988;SDS011;21192;40.182;44.516;2024-03-02T10:29:13;37.30;;;20.60;;
34988;SDS011;21192;40.182;44.516;2024-03-02T10:31:40;43.58;;;21.60;;
34988;SDS011;21192;40.182;44.516;2024-03-02T10:34:07;39.28;;;20.35;;
34988;SDS011;21192;40.182;44.516;2024-03-02T10:36:34;37.90;;;20.50;;
34988;SDS011;21192;40.182;44.516;2024-03-02T10:39:03;35.65;;;20.52;;
34988;SDS011;21192;40.182;44.516;2024-03-02T10:41:33;34.45;;;19.90;;
34988;SDS011;21192;40.182;44.516;2024-03-02T10:44:05;37.88;;;20.13;;
34988;SDS011;21192;40.182;44.516;2024-03-02T10:46:32;42.92;;;21.45;;
34988;SDS011;21192;40.182;44.516;2024-03-02T10:49:00;39.40;;;20.55;;
34988;SDS011;21192;40.182;44.516;2024-03-02T10:51:28;44.20;;;21.70;;
34988;SDS011;21192;40.182;44.516;2024-03-02T10:53:59;54.47;;;26.02;;
34988;SDS011;21192;40.182;44.516;2024-03-02T10:56:30;54.22;;;25.20;;
34988;SDS011;21192;40.182;44.516;2024-03-02T11:01:56;51.72;;;23.20;;
34988;SDS011;21192;40.182;44.516;2024-03-02T11:04:26;59.75;;;23.65;;
34988;SDS011;21192;40.182;44.516;2024-03-02T11:07:00;40.33;;;22.10;;
34988;SDS011;21192;40.182;44.516;2024-03-02T11:09:34;41.80;;;22.98;;
34988;SDS011;21192;40.182;44.516;2024-03-02T11:14:48;43.17;;;23.65;;
34988;SDS011;21192;40.182;44.516;2024-03-02T11:17:19;40.25;;;20.77;;
34988;SDS011;21192;40.182;44.516;2024-03-02T11:19:46;41.25;;;21.70;;
34988;SDS011;21192;40.182;44.516;2024-03-02T11:22:13;39.33;;;21.50;;
34988;SDS011;21192;40.182;44.516;2024-03-02T11:24:43;40.17;;;21.15;;
34988;SDS011;21192;40.182;44.516;2024-03-02T11:27:14;45.60;;;23.13;;
34988;SDS011;21192;40.182;44.516;2024-03-02T11:29:59;44.33;;;23.38;;
34988;SDS011;21192;40.182;44.516;2024-03-02T11:32:25;50.47;;;22.98;;
34988;SDS011;21192;40.182;44.516;2024-03-02T11:34:51;50.38;;;25.50;;
34988;SDS011;21192;40.182;44.516;2024-03-02T11:37:18;47.92;;;23.63;;
34988;SDS011;21192;40.182;44.516;2024-03-02T11:39:51;55.95;;;25.67;;
34988;SDS011;21192;40.182;44.516;2024-03-02T11:42:17;47.88;;;26.88;;
34988;SDS011;21192;40.182;44.516;2024-03-02T11:44:46;46.53;;;24.95;;
34988;SDS011;21192;40.182;44.516;2024-03-02T11:47:16;51.22;;;25.77;;
34988;SDS011;21192;40.182;44.516;2024-03-02T11:52:14;51.90;;;24.23;;
34988;SDS011;21192;40.182;44.516;2024-03-02T11:54:42;42.22;;;23.73;;
34988;SDS011;21192;40.182;44.516;2024-03-02T11:57:14;49.25;;;26.25;;
34988;SDS011;21192;40.182;44.516;2024-03-02T11:59:41;65.75;;;27.20;;
34988;SDS011;21192;40.182;44.516;2024-03-02T12:02:13;60.28;;;28.15;;
34988;SDS011;21192;40.182;44.516;2024-03-02T12:04:42;57.03;;;27.77;;
34988;SDS011;21192;40.182;44.516;2024-03-02T12:07:08;54.25;;;27.40;;
34988;SDS011;21192;40.182;44.516;2024-03-02T12:09:34;57.97;;;26.92;;
34988;SDS011;21192;40.182;44.516;2024-03-02T12:12:07;53.00;;;26.88;;
34988;SDS011;21192;40.182;44.516;2024-03-02T12:14:36;61.28;;;30.23;;
34988;SDS011;21192;40.182;44.516;2024-03-02T12:17:03;56.55;;;28.00;;
34988;SDS011;21192;40.182;44.516;2024-03-02T12:19:30;56.60;;;27.55;;
34988;SDS011;21192;40.182;44.516;2024-03-02T12:21:57;58.97;;;28.35;;
34988;SDS011;21192;40.182;44.516;2024-03-02T12:24:23;57.53;;;28.23;;
34988;SDS011;21192;40.182;44.516;2024-03-02T12:26:51;53.55;;;28.40;;
34988;SDS011;21192;40.182;44.516;2024-03-02T12:29:21;67.95;;;30.75;;
34988;SDS011;21192;40.182;44.516;2024-03-02T12:31:48;65.07;;;28.80;;
34988;SDS011;21192;40.182;44.516;2024-03-02T12:34:14;60.38;;;29.17;;
34988;SDS011;21192;40.182;44.516;2024-03-02T12:36:41;52.40;;;26.75;;
34988;SDS011;21192;40.182;44.516;2024-03-02T12:39:08;53.83;;;29.25;;
34988;SDS011;21192;40.182;44.516;2024-03-02T12:41:38;62.35;;;32.50;;
34988;SDS011;21192;40.182;44.516;2024-03-02T12:44:04;66.25;;;33.40;;
34988;SDS011;21192;40.182;44.516;2024-03-02T12:46:31;54.05;;;30.17;;
34988;SDS011;21192;40.182;44.516;2024-03-02T12:48:57;56.13;;;29.60;;
34988;SDS011;21192;40.182;44.516;2024-03-02T12:51:26;68.82;;;31.00;;
34988;SDS011;21192;40.182;44.516;2024-03-02T12:53:53;44.33;;;23.58;;
34988;SDS011;21192;40.182;44.516;2024-03-02T12:56:22;47.42;;;25.52;;
34988;SDS011;21192;40.182;44.516;2024-03-02T12:58:53;41.33;;;22.15;;
34988;SDS011;21192;40.182;44.516;2024-03-02T13:01:19;48.33;;;23.23;;
34988;SDS011;21192;40.182;44.516;2024-03-02T13:03:48;46.60;;;20.80;;
34988;SDS011;21192;40.182;44.516;2024-03-02T13:06:16;40.33;;;22.13;;
34988;SDS011;21192;40.182;44.516;2024-03-02T13:08:42;41.63;;;22.00;;
34988;SDS011;21192;40.182;44.516;2024-03-02T13:11:09;45.45;;;22.33;;
34988;SDS011;21192;40.182;44.516;2024-03-02T13:13:35;52.00;;;23.90;;
34988;SDS011;21192;40.182;44.516;2024-03-02T13:16:03;48.17;;;24.15;;
34988;SDS011;21192;40.182;44.516;2024-03-02T13:18:33;54.05;;;25.20;;
34988;SDS011;21192;40.182;44.516;2024-03-02T13:20:59;57.10;;;25.70;;
34988;SDS011;21192;40.182;44.516;2024-03-02T13:23:25;58.10;;;29.20;;
34988;SDS011;21192;40.182;44.516;2024-03-02T13:25:51;69.88;;;33.10;;
34988;SDS011;21192;40.182;44.516;2024-03-02T13:28:17;62.67;;;31.92;;
34988;SDS011;21192;40.182;44.516;2024-03-02T13:30:42;57.75;;;30.27;;
34988;SDS011;21192;40.182;44.516;2024-03-02T13:33:08;59.38;;;29.90;;
34988;SDS011;21192;40.182;44.516;2024-03-02T13:35:35;59.85;;;28.92;;
34988;SDS011;21192;40.182;44.516;2024-03-02T13:38:00;57.90;;;29.17;;
34988;SDS011;21192;40.182;44.516;2024-03-02T13:40:26;53.60;;;27.98;;
34988;SDS011;21192;40.182;44.516;2024-03-02T13:42:53;56.22;;;27.45;;
34988;SDS011;21192;40.182;44.516;2024-03-02T13:45:19;56.13;;;29.38;;
34988;SDS011;21192;40.182;44.516;2024-03-02T13:47:45;45.95;;;26.48;;
34988;SDS011;21192;40.182;44.516;2024-03-02T13:50:11;38.08;;;23.27;;
34988;SDS011;21192;40.182;44.516;2024-03-02T13:52:36;45.33;;;24.58;;
34988;SDS011;21192;40.182;44.516;2024-03-02T13:55:02;47.53;;;26.45;;
34988;SDS011;21192;40.182;44.516;2024-03-02T13:57:29;54.17;;;29.00;;
34988;SDS011;21192;40.182;44.516;2024-03-02T13:59:55;45.47;;;23.25;;
34988;SDS011;21192;40.182;44.516;2024-03-02T14:02:21;48.85;;;24.95;;
34988;SDS011;21192;40.182;44.516;2024-03-02T14:04:48;39.53;;;21.52;;
34988;SDS011;21192;40.182;44.516;2024-03-02T14:07:16;33.47;;;22.45;;
34988;SDS011;21192;40.182;44.516;2024-03-02T14:09:42;39.05;;;21.98;;
34988;SDS011;21192;40.182;44.516;2024-03-02T14:12:08;39.50;;;23.38;;
34988;SDS011;21192;40.182;44.516;2024-03-02T14:14:35;42.30;;;23.77;;
34988;SDS011;21192;40.182;44.516;2024-03-02T14:17:01;36.72;;;22.60;;
34988;SDS011;21192;40.182;44.516;2024-03-02T14:19:31;41.13;;;23.15;;
34988;SDS011;21192;40.182;44.516;2024-03-02T14:21:57;41.22;;;24.88;;
34988;SDS011;21192;40.182;44.516;2024-03-02T14:24:24;38.47;;;23.05;;